Time;durP1;ratioP1;P1;durP2;ratioP2;P2;SDS_P1;SDS_P2;PMS_P1;PMS_P2;Temp;Humidity;BMP_temperature;BMP_pressure;BME280_temperature;BME280_humidity;BME280_pressure;Samples;Min_cycle;Max_cycle;Signal;HPM_P1;HPM_P2
2023/01/19 00:01:23;;;;;;;;;;;6.20;99.90;;;;;;5077917;28;20181;-73
2023/01/19 00:03:48;;;;;;;3.50;1.98;;;5.90;99.90;;;;;;5077121;28;20363;-73
2023/01/19 00:06:14;;;;;;;3.13;1.70;;;5.70;99.90;;;;;;5078144;28;20084;-73
2023/01/19 00:08:43;;;;;;;3.85;2.10;;;5.70;99.90;;;;;;5076931;28;20157;-71
2023/01/19 00:11:09;;;;;;;4.10;1.80;;;5.70;99.90;;;;;;5076625;28;20097;-74
2023/01/19 00:13:35;;;;;;;4.35;2.22;;;5.70;99.90;;;;;;5076925;28;20500;-73
2023/01/19 00:16:01;;;;;;;4.13;1.65;;;5.80;99.90;;;;;;5076163;28;20037;-74
2023/01/19 00:18:27;;;;;;;4.43;1.50;;;5.80;99.90;;;;;;5075824;28;20037;-73
2023/01/19 00:20:53;;;;;;;4.18;1.40;;;6.00;99.90;;;;;;5078836;28;20045;-73
2023/01/19 00:23:19;;;;;;;2.17;1.33;;;5.70;99.90;;;;;;5061542;28;20514;-73
2023/01/19 00:25:46;;;;;;;;;;;5.90;99.90;;;;;;5079120;28;20289;-74
2023/01/19 00:28:14;;;;;;;3.63;1.50;;;5.60;99.90;;;;;;5076955;28;19942;-73
2023/01/19 00:30:41;;;;;;;3.42;1.40;;;5.70;99.90;;;;;;5078099;28;20032;-73
2023/01/19 00:33:07;;;;;;;;;;;6.20;99.90;;;;;;5063842;28;20444;-71
2023/01/19 00:35:34;;;;;;;3.60;2.00;;;5.70;99.90;;;;;;5078238;28;19923;-71
2023/01/19 00:38:00;;;;;;;3.63;1.60;;;6.30;99.90;;;;;;5077832;28;20048;-71
2023/01/19 00:40:26;;;;;;;3.75;1.50;;;5.80;99.90;;;;;;5065965;28;20059;-71
2023/01/19 00:42:52;;;;;;;2.85;1.52;;;6.30;99.90;;;;;;5082174;28;20044;-71
2023/01/19 00:45:20;;;;;;;3.55;1.50;;;6.40;99.90;;;;;;5081474;28;20127;-73
2023/01/19 00:47:47;;;;;;;5.70;1.60;;;6.40;99.90;;;;;;5080998;28;20147;-74
2023/01/19 00:50:15;;;;;;;4.32;1.60;;;6.40;99.90;;;;;;5080365;28;20047;-73
2023/01/19 00:52:42;;;;;;;2.58;1.60;;;6.40;99.90;;;;;;5076997;28;20399;-73
2023/01/19 00:55:10;;;;;;;2.58;1.60;;;6.40;99.90;;;;;;5082681;28;20037;-74
2023/01/19 00:57:37;;;;;;;5.13;1.48;;;5.90;99.90;;;;;;5080765;28;20169;-74
2023/01/19 01:00:06;;;;;;;3.88;1.75;;;5.90;99.90;;;;;;5081772;28;20476;-72
2023/01/19 01:02:32;;;;;;;3.13;1.50;;;6.10;99.90;;;;;;5078527;28;20480;-73
2023/01/19 01:05:01;;;;;;;3.13;1.60;;;6.20;99.90;;;;;;5082731;28;20084;-73
2023/01/19 01:07:28;;;;;;;4.18;1.42;;;6.40;99.90;;;;;;5081797;28;20055;-71
2023/01/19 01:09:58;;;;;;;7.57;1.45;;;6.20;99.90;;;;;;5062858;28;20415;-71
2023/01/19 01:12:23;;;;;;;2.95;1.52;;;6.60;99.90;;;;;;5079561;28;20047;-73
2023/01/19 01:14:49;;;;;;;3.90;1.67;;;6.20;99.90;;;;;;5082724;28;20044;-73
2023/01/19 01:17:15;;;;;;;5.00;1.30;;;6.50;99.90;;;;;;5081748;28;20058;-73
2023/01/19 01:19:40;;;;;;;3.72;1.10;;;6.70;99.90;;;;;;5079851;28;20142;-74
2023/01/19 01:22:08;;;;;;;2.38;1.10;;;6.80;99.90;;;;;;5083308;28;20123;-73
2023/01/19 01:24:33;;;;;;;4.78;0.98;;;6.60;99.90;;;;;;5079160;28;20052;-73
2023/01/19 01:26:59;;;;;;;2.97;0.90;;;6.40;99.90;;;;;;5076811;28;20028;-73
2023/01/19 01:29:25;;;;;;;2.67;0.70;;;6.50;99.90;;;;;;5078396;28;20134;-73
2023/01/19 01:31:51;;;;;;;3.33;0.82;;;6.20;99.90;;;;;;5079336;28;20055;-73
2023/01/19 01:34:17;;;;;;;2.80;0.63;;;6.30;99.90;;;;;;5078192;28;20518;-73
2023/01/19 01:36:43;;;;;;;1.90;0.70;;;7.00;99.90;;;;;;5078407;28;20028;-73
2023/01/19 01:39:08;;;;;;;1.48;0.60;;;7.00;99.90;;;;;;5063359;28;20064;-74
2023/01/19 01:41:34;;;;;;;1.45;0.52;;;6.40;99.90;;;;;;5078826;28;20044;-74
2023/01/19 01:44:07;;;;;;;1.77;0.52;;;6.50;99.90;;;;;;5082987;28;20031;-73
2023/01/19 01:46:32;;;;;;;3.20;0.60;;;6.70;99.90;;;;;;5059689;28;20075;-74
2023/01/19 01:49:14;;;;;;;2.28;0.60;;;7.00;99.90;;;;;;5077302;28;20511;-74
2023/01/19 01:51:46;;;;;;;4.60;0.85;;;7.20;99.90;;;;;;5057973;28;20139;-73
2023/01/19 01:54:25;;;;;;;4.47;1.13;;;7.10;99.90;;;;;;5081513;28;20062;-73
2023/01/19 01:56:54;;;;;;;3.78;0.80;;;6.70;99.90;;;;;;5079606;28;20044;-73
2023/01/19 01:59:28;;;;;;;3.55;0.90;;;7.00;99.90;;;;;;5077064;28;20423;-74
2023/01/19 02:05:08;;;;;;;3.28;1.10;;;6.60;99.90;;;;;;5074290;28;20083;-71
2023/01/19 02:13:20;;;;;;;2.40;1.40;;;6.60;99.90;;;;;;5075734;28;20098;-71
2023/01/19 02:15:52;;;;;;;2.60;1.90;;;6.40;99.90;;;;;;5062460;28;20028;-74
2023/01/19 02:18:23;;;;;;;4.38;2.10;;;6.60;99.90;;;;;;5076119;28;20098;-73
2023/01/19 02:21:13;;;;;;;3.15;1.73;;;6.30;99.90;;;;;;5062015;28;20652;-71
2023/01/19 02:23:52;;;;;;;4.07;2.15;;;6.40;99.90;;;;;;5075223;28;20078;-70
2023/01/19 02:26:35;;;;;;;5.30;2.55;;;6.30;99.90;;;;;;5079983;28;20123;-70
2023/01/19 02:29:05;;;;;;;3.35;2.40;;;6.40;99.90;;;;;;5058526;28;20508;-70
2023/01/19 02:31:33;;;;;;;3.50;2.70;;;6.30;99.90;;;;;;5075273;28;20549;-70
2023/01/19 02:34:01;;;;;;;4.15;2.80;;;6.60;99.90;;;;;;5077138;28;20046;-70
2023/01/19 02:37:05;;;;;;;3.97;3.00;;;6.30;99.90;;;;;;5074206;28;20043;-70
2023/01/19 02:39:41;;;;;;;3.33;2.45;;;6.80;99.90;;;;;;5076269;28;20049;-72
2023/01/19 02:42:26;;;;;;;3.83;2.80;;;6.70;99.90;;;;;;5063341;28;20043;-73
2023/01/19 02:44:54;;;;;;;3.42;2.42;;;6.20;99.90;;;;;;5073138;28;20494;-73
2023/01/19 02:47:20;;;;;;;4.22;2.63;;;6.20;99.90;;;;;;5073841;28;20052;-73
2023/01/19 02:49:56;;;;;;;3.72;2.65;;;6.30;99.90;;;;;;5074793;28;20542;-73
2023/01/19 02:52:23;;;;;;;4.97;2.27;;;6.20;99.90;;;;;;5077004;28;20047;-73
2023/01/19 02:55:27;;;;;;;;;;;6.90;99.90;;;;;;5082090;28;20463;-70
2023/01/19 02:57:55;;;;;;;3.75;2.70;;;6.90;99.90;;;;;;5008570;28;19932;-70
2023/01/19 03:00:41;;;;;;;3.80;2.50;;;7.00;99.90;;;;;;5041263;28;20046;-70
2023/01/19 03:03:10;;;;;;;3.25;1.92;;;6.50;99.90;;;;;;5073527;28;20132;-73
2023/01/19 03:05:44;;;;;;;2.85;2.00;;;6.20;99.90;;;;;;5073820;28;20519;-73
2023/01/19 03:08:28;;;;;;;3.30;2.38;;;6.30;99.90;;;;;;5078527;28;20040;-73
2023/01/19 03:11:00;;;;;;;2.70;2.10;;;6.20;99.90;;;;;;5074478;28;20440;-73
2023/01/19 03:13:46;;;;;;;4.55;2.17;;;6.30;99.90;;;;;;5077354;28;20123;-73
2023/01/19 03:16:20;;;;;;;3.20;2.33;;;6.20;99.90;;;;;;5079793;28;20399;-73
2023/01/19 03:18:54;;;;;;;2.40;2.03;;;6.90;99.90;;;;;;5075680;28;20072;-73
2023/01/19 03:21:24;;;;;;;2.90;2.17;;;6.70;99.90;;;;;;5079767;28;20036;-73
2023/01/19 03:23:51;;;;;;;2.92;2.10;;;6.30;99.90;;;;;;5062155;28;20043;-74
2023/01/19 03:26:24;;;;;;;4.13;2.10;;;6.90;99.90;;;;;;5077527;28;20040;-73
2023/01/19 03:28:51;;;;;;;2.47;1.90;;;6.70;99.90;;;;;;5076937;28;20078;-74
2023/01/19 03:35:00;;;;;;;2.97;2.20;;;6.40;99.90;;;;;;6083290;22;20190;31
2023/01/19 03:37:56;;;;;;;3.50;2.00;;;6.50;99.90;;;;;;5709196;22;21182;31
2023/01/19 03:40:28;;;;;;;2.70;1.95;;;6.60;99.90;;;;;;4969061;23;20058;-74
2023/01/19 03:42:55;;;;;;;2.72;2.30;;;6.90;99.90;;;;;;4956337;28;20482;-76
2023/01/19 03:45:21;;;;;;;;;;;7.00;99.90;;;;;;4958866;28;20045;-77
2023/01/19 03:47:47;;;;;;;2.70;2.10;;;7.00;99.90;;;;;;4957697;28;19926;-74
2023/01/19 03:50:23;;;;;;;2.88;2.13;;;7.10;99.90;;;;;;4939847;28;20362;-75
2023/01/19 03:53:10;;;;;;;4.30;2.50;;;6.40;99.90;;;;;;4957457;28;20077;-74
2023/01/19 03:55:40;;;;;;;4.22;2.08;;;6.70;99.90;;;;;;4975096;28;20375;-74
2023/01/19 03:58:05;;;;;;;2.20;1.80;;;6.90;99.90;;;;;;4927149;28;20157;-75
2023/01/19 04:00:32;;;;;;;2.63;1.73;;;7.10;99.90;;;;;;4958057;28;20051;-76
2023/01/19 04:02:58;;;;;;;2.63;2.25;;;7.20;99.90;;;;;;4956318;28;20043;-75
2023/01/19 04:05:23;;;;;;;2.55;2.10;;;6.40;99.90;;;;;;4942818;28;20030;-75
2023/01/19 04:07:51;;;;;;;1.77;1.60;;;7.10;99.90;;;;;;4955321;28;20043;-74
2023/01/19 04:10:21;;;;;;;1.95;1.50;;;7.20;99.90;;;;;;4942795;28;20110;-74
2023/01/19 04:12:47;;;;;;;2.03;1.50;;;6.90;99.90;;;;;;4955192;28;20051;-74
2023/01/19 04:15:14;;;;;;;3.63;1.92;;;6.90;99.90;;;;;;4961601;28;20038;-74
2023/01/19 04:17:40;;;;;;;2.92;1.92;;;6.60;99.90;;;;;;4961610;28;20038;-74
2023/01/19 04:20:07;;;;;;;2.65;1.77;;;6.60;99.90;;;;;;4960628;28;20117;-74
2023/01/19 04:22:33;;;;;;;3.05;1.90;;;6.40;99.90;;;;;;4959810;28;20189;-74
2023/01/19 04:24:59;;;;;;;2.63;1.42;;;6.90;99.90;;;;;;4958381;28;20046;-74
2023/01/19 04:27:24;;;;;;;2.95;1.80;;;6.50;99.90;;;;;;4946428;28;20053;-74
2023/01/19 04:29:50;;;;;;;2.80;1.50;;;7.20;99.90;;;;;;4946876;28;20126;-74
2023/01/19 04:32:17;;;;;;;2.92;1.73;;;7.10;99.90;;;;;;4958979;28;20043;-74
2023/01/19 04:34:43;;;;;;;1.40;1.10;;;6.40;99.90;;;;;;4960631;28;20051;-75
2023/01/19 04:37:09;;;;;;;1.83;1.10;;;6.30;99.90;;;;;;4933069;28;20046;-74
2023/01/19 04:39:35;;;;;;;2.38;1.55;;;6.60;99.90;;;;;;4965373;28;20050;-75
2023/01/19 04:42:00;;;;;;;2.28;1.45;;;6.20;99.90;;;;;;4940701;29;20146;-74
2023/01/19 04:44:27;;;;;;;1.40;1.23;;;6.30;99.90;;;;;;4943075;29;20130;-74
2023/01/19 04:46:53;;;;;;;1.00;0.90;;;6.20;99.90;;;;;;4944045;29;20086;-74
2023/01/19 04:49:19;;;;;;;1.77;0.98;;;7.00;99.90;;;;;;4934348;29;20051;-74
2023/01/19 04:51:45;;;;;;;0.70;0.70;;;7.00;99.90;;;;;;4937031;29;20469;-75
2023/01/19 04:54:11;;;;;;;1.00;0.88;;;6.50;99.90;;;;;;4939578;29;20048;-74
2023/01/19 04:56:37;;;;;;;0.93;0.70;;;6.20;99.90;;;;;;4943515;29;20512;-74
2023/01/19 04:59:03;;;;;;;1.67;0.90;;;7.00;99.90;;;;;;4929580;29;20122;-74
2023/01/19 05:01:28;;;;;;;1.65;1.05;;;6.30;99.90;;;;;;4943754;29;20591;-74
2023/01/19 05:03:57;;;;;;;1.48;0.70;;;6.80;99.90;;;;;;4942124;29;20131;-75
2023/01/19 05:06:22;;;;;;;1.20;1.05;;;6.30;99.90;;;;;;4934700;29;20054;-75
2023/01/19 05:08:48;;;;;;;1.45;0.90;;;6.60;99.90;;;;;;4926897;29;20051;-75
2023/01/19 05:11:14;;;;;;;1.58;1.20;;;7.00;99.90;;;;;;4942694;29;20050;-75
2023/01/19 05:13:39;;;;;;;3.38;1.20;;;6.40;99.90;;;;;;4944250;29;20187;-75
2023/01/19 05:16:05;;;;;;;1.13;1.00;;;6.90;99.90;;;;;;4916477;29;20059;-75
2023/01/19 05:18:34;;;;;;;1.70;1.05;;;6.50;99.90;;;;;;4933514;29;20397;-75
2023/01/19 05:21:02;;;;;;;0.70;0.70;;;6.50;99.90;;;;;;4943014;29;20045;-75
2023/01/19 05:23:29;;;;;;;1.55;0.60;;;7.10;99.90;;;;;;4942422;28;20047;-75
2023/01/19 05:25:55;;;;;;;1.88;0.77;;;6.50;99.90;;;;;;4926393;29;20167;-75
2023/01/19 05:28:21;;;;;;;2.40;1.17;;;6.90;99.90;;;;;;4928656;29;20506;-75
2023/01/19 05:30:48;;;;;;;0.90;0.80;;;7.20;99.90;;;;;;4944393;29;20047;-75
2023/01/19 05:33:14;;;;;;;1.85;1.00;;;7.20;99.90;;;;;;4926438;29;20047;-74
2023/01/19 05:35:40;;;;;;;2.22;1.13;;;6.70;99.90;;;;;;4941398;29;20043;-75
2023/01/19 05:38:06;;;;;;;2.20;0.73;;;6.60;99.90;;;;;;4930013;29;20123;-75
2023/01/19 05:40:32;;;;;;;3.00;0.90;;;7.10;99.90;;;;;;4941407;29;20134;-76
2023/01/19 05:42:59;;;;;;;1.05;0.50;;;7.20;99.90;;;;;;4909334;29;20067;-75
2023/01/19 05:45:27;;;;;;;1.13;0.85;;;7.20;99.90;;;;;;4911237;29;20497;-75
2023/01/19 05:47:53;;;;;;;1.17;0.45;;;7.40;99.90;;;;;;4926539;29;20043;-76
2023/01/19 05:50:19;;;;;;;2.15;0.50;;;6.70;99.90;;;;;;4924562;29;20055;-76
2023/01/19 05:52:45;;;;;;;3.22;0.70;;;6.80;99.90;;;;;;4926382;29;20032;-76
2023/01/19 05:55:11;;;;;;;6.15;1.00;;;7.50;99.90;;;;;;4925951;29;20505;-76
2023/01/19 05:57:36;;;;;;;2.90;0.57;;;7.50;99.90;;;;;;4923286;29;20134;-76
2023/01/19 06:00:03;;;;;;;2.63;0.68;;;7.20;99.90;;;;;;4942608;29;20118;-76
2023/01/19 06:02:29;;;;;;;2.42;1.13;;;6.80;99.90;;;;;;4940918;29;20047;-75
2023/01/19 06:04:55;;;;;;;2.15;1.00;;;6.70;99.90;;;;;;4923597;29;20505;-75
2023/01/19 06:07:21;;;;;;;3.28;0.73;;;6.70;99.90;;;;;;4940454;29;20052;-75
2023/01/19 06:09:47;;;;;;;3.10;0.80;;;7.10;99.90;;;;;;4939379;29;20091;-75
2023/01/19 06:12:13;;;;;;;2.58;0.90;;;6.80;99.90;;;;;;4941023;29;20495;-75
2023/01/19 06:14:39;;;;;;;3.85;1.00;;;7.00;99.90;;;;;;4926605;29;20042;-76
2023/01/19 06:17:06;;;;;;;3.10;1.10;;;6.80;99.90;;;;;;4926113;29;20035;-75
2023/01/19 06:19:33;;;;;;;2.17;0.70;;;6.90;99.90;;;;;;4941888;29;20059;-75
2023/01/19 06:21:59;;;;;;;1.95;0.50;;;7.40;99.90;;;;;;4943158;29;20079;-77
2023/01/19 06:24:25;;;;;;;1.20;0.60;;;7.50;99.90;;;;;;4928107;29;20477;-77
2023/01/19 06:26:50;;;;;;;3.95;0.80;;;7.00;99.90;;;;;;4936850;29;20402;-77
2023/01/19 06:29:17;;;;;;;2.60;0.60;;;7.00;99.90;;;;;;4943630;29;20061;-77
2023/01/19 06:31:42;;;;;;;;;;;7.50;99.90;;;;;;4942876;29;20490;-78
2023/01/19 06:34:09;;;;;;;3.53;0.60;;;6.80;99.90;;;;;;4939980;28;19931;-77
2023/01/19 06:36:35;;;;;;;3.00;0.68;;;7.30;99.90;;;;;;4943768;28;20039;-78
2023/01/19 06:39:04;;;;;;;5.25;0.90;;;7.40;99.90;;;;;;4942967;29;20160;-77
2023/01/19 06:41:31;;;;;;;4.10;1.10;;;7.30;99.90;;;;;;4942980;28;20069;-76
2023/01/19 06:43:57;;;;;;;2.15;0.60;;;7.30;99.90;;;;;;4927311;29;20047;-76
2023/01/19 06:46:22;;;;;;;3.90;0.57;;;6.80;99.90;;;;;;4946546;29;20046;-76
2023/01/19 06:48:48;;;;;;;2.78;0.50;;;7.30;99.90;;;;;;4924619;29;20355;-76
2023/01/19 06:51:14;;;;;;;1.65;0.50;;;6.80;99.90;;;;;;4909444;29;20340;-76
2023/01/19 06:53:39;;;;;;;6.15;0.73;;;6.60;99.90;;;;;;4922414;29;20047;-76
2023/01/19 06:56:06;;;;;;;2.30;0.65;;;6.70;99.90;;;;;;4922397;29;20098;-76
2023/01/19 06:58:33;;;;;;;4.50;0.73;;;6.60;99.90;;;;;;4928112;29;20110;-76
2023/01/19 07:01:03;;;;;;;7.70;0.82;;;6.60;99.90;;;;;;4925622;29;20090;-76
2023/01/19 07:03:30;;;;;;;4.60;0.95;;;7.10;99.90;;;;;;4942012;29;20047;-76
2023/01/19 07:05:55;;;;;;;7.95;1.23;;;7.00;99.90;;;;;;4942144;29;20074;-76
2023/01/19 07:08:22;;;;;;;6.30;0.88;;;7.10;99.90;;;;;;4927251;29;20039;-77
2023/01/19 07:10:48;;;;;;;;;;;7.10;99.90;;;;;;4942292;29;20043;-77
2023/01/19 07:13:14;;;;;;;5.80;0.70;;;7.00;99.90;;;;;;4943146;29;19957;-76
2023/01/19 07:15:40;;;;;;;5.82;0.88;;;7.30;99.90;;;;;;4947067;28;20043;-77
2023/01/19 07:18:09;;;;;;;8.00;0.90;;;7.30;99.90;;;;;;4936874;29;20563;-76
2023/01/19 07:20:36;;;;;;;8.57;0.95;;;7.30;99.90;;;;;;4938582;29;20122;-76
2023/01/19 07:23:01;;;;;;;5.60;1.00;;;7.00;99.90;;;;;;4932102;28;20421;-76
2023/01/19 07:25:28;;;;;;;6.60;1.00;;;7.30;99.90;;;;;;4925765;29;20035;-75
2023/01/19 07:28:00;;;;;;;6.07;0.98;;;6.90;99.90;;;;;;4925563;29;20055;-76
2023/01/19 07:30:26;;;;;;;5.05;2.08;;;7.30;99.90;;;;;;4939947;29;20050;-76
2023/01/19 07:32:55;;;;;;;4.63;0.80;;;7.30;99.90;;;;;;4940914;29;20146;-76
2023/01/19 07:35:21;;;;;;;6.03;1.00;;;7.20;99.90;;;;;;4941274;29;20051;-77
2023/01/19 07:37:47;;;;;;;5.20;1.17;;;7.10;99.90;;;;;;4943529;28;20132;-76
2023/01/19 07:40:12;;;;;;;7.35;1.20;;;6.80;99.90;;;;;;4925485;29;20343;-76
2023/01/19 07:42:38;;;;;;;7.85;1.20;;;6.70;99.90;;;;;;4907995;29;20047;-76
2023/01/19 07:45:04;;;;;;;8.60;1.10;;;7.10;99.90;;;;;;4930901;29;20054;-76
2023/01/19 07:47:30;;;;;;;9.60;1.20;;;6.80;99.90;;;;;;4938588;29;20046;-77
2023/01/19 07:49:56;;;;;;;10.80;3.00;;;6.90;99.90;;;;;;4940403;29;20042;-77
2023/01/19 07:52:21;;;;;;;8.50;1.60;;;7.20;99.90;;;;;;4928860;29;20098;-76
2023/01/19 07:54:49;;;;;;;13.07;1.90;;;7.20;99.90;;;;;;4941831;29;20471;-77
2023/01/19 07:57:16;;;;;;;9.73;1.80;;;6.90;99.90;;;;;;4941562;29;20070;-76
2023/01/19 07:59:42;;;;;;;9.27;1.30;;;7.10;99.90;;;;;;4959615;28;20066;-77
2023/01/19 08:02:09;;;;;;;;;;;6.90;99.90;;;;;;4946049;29;20051;-77
2023/01/19 08:04:34;;;;;;;9.35;1.40;;;7.00;99.90;;;;;;4945082;28;19949;-77
2023/01/19 08:07:00;;;;;;;7.50;1.30;;;6.70;99.90;;;;;;4928452;28;20080;-77
2023/01/19 08:09:26;;;;;;;7.30;1.10;;;6.50;99.90;;;;;;4929026;29;20098;-76
2023/01/19 08:11:51;;;;;;;10.18;1.77;;;6.40;99.90;;;;;;4939834;29;20106;-76
2023/01/19 08:14:17;;;;;;;7.57;1.08;;;6.20;99.90;;;;;;4943411;29;20058;-76
2023/01/19 08:16:43;;;;;;;6.38;1.00;;;6.20;99.90;;;;;;4929767;29;20063;-77
2023/01/19 08:19:08;;;;;;;12.38;1.67;;;6.10;99.90;;;;;;4931272;29;20082;-77
2023/01/19 08:21:35;;;;;;;8.52;1.50;;;6.00;99.90;;;;;;4925317;29;20043;-77
2023/01/19 08:24:00;;;;;;;;;;;6.00;99.90;;;;;;4942051;28;20099;-77
2023/01/19 08:26:32;;;;;;;12.23;1.75;;;6.00;99.90;;;;;;4934489;29;19922;-77
2023/01/19 08:29:01;;;;;;;9.02;1.63;;;6.10;99.90;;;;;;4941875;29;20480;-77
2023/01/19 08:31:26;;;;;;;9.88;2.13;;;6.10;99.90;;;;;;4942809;29;20035;-77
2023/01/19 08:33:52;;;;;;;9.43;1.67;;;6.00;99.90;;;;;;4941127;28;20065;-77
2023/01/19 08:36:19;;;;;;;12.15;1.65;;;5.90;99.90;;;;;;4921735;29;20565;-77
2023/01/19 08:38:45;;;;;;;11.48;1.70;;;5.80;99.90;;;;;;4939493;29;20398;-77
2023/01/19 08:41:11;;;;;;;7.72;2.05;;;5.70;99.90;;;;;;4923278;29;20097;-77
2023/01/19 08:43:37;;;;;;;;;;;5.60;99.90;;;;;;4921462;29;20048;-76
2023/01/19 08:46:03;;;;;;;8.55;1.50;;;5.60;99.90;;;;;;4941086;29;19970;-77
2023/01/19 08:48:29;;;;;;;8.65;1.67;;;5.40;99.90;;;;;;4925395;29;20432;-76
2023/01/19 08:50:55;;;;;;;8.98;1.70;;;5.40;99.90;;;;;;4946817;28;20130;-76
2023/01/19 08:53:22;;;;;;;9.75;1.55;;;5.30;99.90;;;;;;4934159;29;20450;-76
2023/01/19 08:55:49;;;;;;;10.38;1.35;;;5.30;99.90;;;;;;4951134;29;20047;-76
2023/01/19 08:58:15;;;;;;;8.20;1.60;;;5.30;99.90;;;;;;4951095;28;20172;-76
2023/01/19 09:00:41;;;;;;;6.68;1.85;;;5.20;99.90;;;;;;4954443;29;20036;-76
2023/01/19 09:03:10;;;;;;;6.80;1.20;;;5.10;99.90;;;;;;4954555;28;20035;-76
2023/01/19 09:05:37;;;;;;;11.30;2.00;;;5.10;99.90;;;;;;4954479;29;20386;-76
2023/01/19 09:08:09;;;;;;;8.30;1.60;;;5.10;99.90;;;;;;4954395;29;20035;-76
2023/01/19 09:10:36;;;;;;;6.28;1.45;;;5.10;99.90;;;;;;4922392;29;20046;-76
2023/01/19 09:13:09;;;;;;;10.20;1.58;;;5.00;99.90;;;;;;4934664;29;20497;-76
2023/01/19 09:15:36;;;;;;;8.70;1.95;;;5.00;99.90;;;;;;4938188;28;20039;-76
2023/01/19 09:18:04;;;;;;;9.20;1.52;;;4.80;99.90;;;;;;4938266;29;20045;-76
2023/01/19 09:20:30;;;;;;;6.97;1.83;;;4.70;99.90;;;;;;4937893;29;20680;-76
2023/01/19 09:22:57;;;;;;;10.13;1.52;;;4.70;99.90;;;;;;4953728;28;20125;-76
2023/01/19 09:25:23;;;;;;;9.25;1.67;;;4.70;99.90;;;;;;4942163;28;20038;-76
2023/01/19 09:27:49;;;;;;;;;;;4.70;99.90;;;;;;4953653;29;20126;-76
2023/01/19 09:30:16;;;;;;;9.85;1.50;;;4.60;99.90;;;;;;4929309;29;20374;-76
2023/01/19 09:32:42;;;;;;;6.60;1.30;;;4.50;99.90;;;;;;4930302;29;20043;-76
2023/01/19 09:35:08;;;;;;;8.25;1.30;;;4.50;99.90;;;;;;4937266;29;20052;-76
2023/01/19 09:37:34;;;;;;;10.80;1.33;;;4.40;99.90;;;;;;4953145;28;20097;-76
2023/01/19 09:39:59;;;;;;;5.95;1.23;;;4.50;99.90;;;;;;4937178;29;20059;-76
2023/01/19 09:42:37;;;;;;;10.05;1.50;;;4.40;99.90;;;;;;4953140;28;20061;-76
2023/01/19 09:45:14;;;;;;;7.63;1.38;;;4.40;99.90;;;;;;4953255;28;20058;-76
2023/01/19 09:47:40;;;;;;;5.90;1.35;;;4.40;99.90;;;;;;4952460;29;20047;-76
2023/01/19 09:50:15;;;;;;;;;;;4.40;99.90;;;;;;4953996;29;20039;-76
2023/01/19 09:52:46;;;;;;;4.70;1.25;;;4.50;99.90;;;;;;4921720;29;20243;-75
2023/01/19 09:55:25;;;;;;;4.40;1.25;;;4.50;99.90;;;;;;4936932;29;20167;-76
2023/01/19 09:57:52;;;;;;;8.27;1.35;;;4.60;99.90;;;;;;4922954;29;20049;-75
2023/01/19 10:00:18;;;;;;;10.32;1.50;;;4.70;99.90;;;;;;4902407;29;20039;-75
2023/01/19 10:03:16;;;;;;;8.98;1.30;;;4.70;99.90;;;;;;4945846;29;20881;-76
2023/01/19 10:05:57;;;;;;;13.70;1.60;;;4.80;99.90;;;;;;4925523;29;20044;-76
2023/01/19 10:08:53;;;;;;;9.27;1.25;;;4.80;99.90;;;;;;4942889;28;20450;-77
2023/01/19 10:11:36;;;;;;;8.20;1.60;;;4.80;99.90;;;;;;4933604;29;20051;-77
2023/01/19 10:14:08;;;;;;;12.07;1.42;;;5.00;99.90;;;;;;4949550;29;20050;-77
2023/01/19 10:16:50;;;;;;;12.50;1.58;;;5.10;99.90;;;;;;4944077;29;20782;-76
2023/01/19 10:19:26;;;;;;;9.05;1.35;;;5.10;99.90;;;;;;4952528;28;20078;-77
2023/01/19 10:21:56;;;;;;;12.77;1.58;;;5.10;99.90;;;;;;4936662;29;20118;-77
2023/01/19 10:24:39;;;;;;;8.57;1.67;;;5.00;99.90;;;;;;4936348;29;20053;-76
2023/01/19 10:27:14;;;;;;;9.98;1.60;;;5.00;99.90;;;;;;4920752;29;20507;-76
2023/01/19 10:29:40;;;;;;;11.68;1.42;;;5.00;99.90;;;;;;4948345;29;20062;-77
2023/01/19 10:32:09;;;;;;;7.90;1.15;;;5.00;99.90;;;;;;4920786;29;20047;-77
2023/01/19 10:34:35;;;;;;;8.10;1.13;;;5.10;99.90;;;;;;4929906;29;20044;-76
2023/01/19 10:37:24;;;;;;;6.57;1.30;;;5.10;99.90;;;;;;4947507;29;20053;-77
2023/01/19 10:40:28;;;;;;;8.75;1.50;;;5.20;99.90;;;;;;4933214;29;20398;-77
2023/01/19 10:42:56;;;;;;;9.65;1.60;;;5.20;99.90;;;;;;4928563;29;20055;-77
2023/01/19 10:45:25;;;;;;;9.65;1.38;;;5.20;99.90;;;;;;4925225;29;20471;-77
2023/01/19 10:47:53;;;;;;;9.35;1.40;;;5.30;99.90;;;;;;4936116;28;20102;-77
2023/01/19 10:50:27;;;;;;;10.00;1.80;;;5.30;99.90;;;;;;4936356;29;20128;-77
2023/01/19 10:52:55;;;;;;;10.45;1.40;;;5.30;99.90;;;;;;4935964;29;20046;-77
2023/01/19 10:55:24;;;;;;;8.25;1.27;;;5.40;99.90;;;;;;4925568;29;20130;-77
2023/01/19 10:57:51;;;;;;;11.45;1.55;;;5.50;99.90;;;;;;4951935;28;20130;-76
2023/01/19 11:00:36;;;;;;;7.78;1.20;;;5.60;99.90;;;;;;4927407;29;20062;-77
2023/01/19 11:03:23;;;;;;;6.90;1.40;;;5.70;99.90;;;;;;4946930;29;20113;-77
2023/01/19 11:05:49;;;;;;;8.57;1.73;;;5.90;99.90;;;;;;4923902;29;20102;-77
2023/01/19 11:08:27;;;;;;;5.45;1.42;;;6.00;99.90;;;;;;4951800;29;20039;-77
2023/01/19 11:11:01;;;;;;;10.20;1.40;;;6.10;99.90;;;;;;4950324;28;20595;-75
2023/01/19 11:13:27;;;;;;;8.15;1.40;;;6.20;99.90;;;;;;4951457;28;20557;-76
2023/01/19 11:15:58;;;;;;;10.90;1.63;;;6.20;99.90;;;;;;4951673;28;20043;-76
2023/01/19 11:18:42;;;;;;;9.48;1.40;;;6.30;99.90;;;;;;4932377;29;20446;-76
2023/01/19 11:21:15;;;;;;;6.03;1.30;;;6.50;99.90;;;;;;4940791;28;20106;-76
2023/01/19 11:23:53;;;;;;;6.47;1.52;;;6.60;99.90;;;;;;4914109;29;20047;-77
2023/01/19 11:26:57;;;;;;;6.38;1.00;;;6.90;99.90;;;;;;4942750;29;20474;-76
2023/01/19 11:29:25;;;;;;;13.10;1.42;;;7.00;99.90;;;;;;4943639;28;20055;-76
2023/01/19 11:31:53;;;;;;;9.77;1.58;;;7.10;99.90;;;;;;4935462;29;20061;-76
2023/01/19 11:34:36;;;;;;;9.65;1.65;;;7.10;99.90;;;;;;4928913;29;20534;-76
2023/01/19 11:37:17;;;;;;;8.70;1.65;;;7.10;99.90;;;;;;4927099;29;20032;-77
2023/01/19 11:39:52;;;;;;;8.73;1.83;;;7.10;99.90;;;;;;4923494;29;20141;-77
2023/01/19 11:42:19;;;;;;;6.95;1.52;;;6.90;98.70;;;;;;4945772;29;20051;-76
2023/01/19 11:45:02;;;;;;;11.75;1.65;;;7.10;99.90;;;;;;4948251;29;20046;-76
2023/01/19 11:47:36;;;;;;;7.43;1.35;;;7.20;98.20;;;;;;4931463;29;20047;-76
2023/01/19 11:50:14;;;;;;;6.80;1.65;;;7.30;99.40;;;;;;4932781;29;20043;-76
2023/01/19 11:52:45;;;;;;;7.45;1.33;;;7.50;99.00;;;;;;4948393;29;20062;-76
2023/01/19 11:55:35;;;;;;;10.90;1.60;;;7.50;98.90;;;;;;4932772;29;20134;-76
2023/01/19 11:58:02;;;;;;;8.38;1.33;;;7.50;92.10;;;;;;4930244;29;20388;-76
2023/01/19 12:00:42;;;;;;;5.85;1.25;;;7.50;88.50;;;;;;4945924;29;20039;-76
2023/01/19 12:03:29;;;;;;;5.55;1.20;;;7.40;82.60;;;;;;4950329;29;20183;-76
2023/01/19 12:06:04;;;;;;;6.18;1.40;;;7.50;81.30;;;;;;4948978;29;20058;-76
2023/01/19 12:08:45;;;;;;;5.22;1.15;;;7.60;82.30;;;;;;4929787;29;20085;-76
2023/01/19 12:11:19;;;;;;;6.82;1.10;;;7.60;77.60;;;;;;4931360;29;20051;-76
2023/01/19 12:13:46;;;;;;;6.15;0.88;;;7.70;83.00;;;;;;4916259;29;20363;-76
2023/01/19 12:16:31;;;;;;;4.40;0.90;;;7.60;73.60;;;;;;4931742;29;20095;-76
2023/01/19 12:19:09;;;;;;;6.05;1.00;;;7.70;71.20;;;;;;4931730;29;20514;-76
2023/01/19 12:21:36;;;;;;;7.60;1.42;;;7.60;73.00;;;;;;4931911;29;20098;-76
2023/01/19 12:24:04;;;;;;;;;;;7.30;68.40;;;;;;4927740;29;20051;-75
2023/01/19 12:26:37;;;;;;;4.57;0.90;;;7.20;73.80;;;;;;4919097;29;19922;-76
2023/01/19 12:29:30;;;;;;;6.80;1.10;;;7.00;68.70;;;;;;4950629;29;20545;-76
2023/01/19 12:32:15;;;;;;;6.57;1.20;;;6.60;66.40;;;;;;4934938;29;20055;-76
2023/01/19 12:34:43;;;;;;;5.30;1.10;;;6.40;73.40;;;;;;4936850;29;20165;-74
2023/01/19 12:37:30;;;;;;;6.75;1.55;;;6.40;71.80;;;;;;4954674;29;20507;-74
2023/01/19 12:40:18;;;;;;;6.20;1.60;;;6.60;77.80;;;;;;4938482;29;20055;-74
2023/01/19 12:42:49;;;;;;;8.80;1.05;;;6.70;79.00;;;;;;4938386;29;20055;-74
2023/01/19 12:45:24;;;;;;;3.85;1.00;;;6.80;83.20;;;;;;4954330;29;20122;-74
2023/01/19 12:47:54;;;;;;;4.60;1.08;;;6.70;82.50;;;;;;4954622;29;20082;-74
2023/01/19 12:50:24;;;;;;;5.32;0.95;;;6.70;76.60;;;;;;4954209;29;20066;-74
2023/01/19 12:52:56;;;;;;;3.92;1.00;;;6.80;76.50;;;;;;4954588;29;20082;-74
2023/01/19 12:55:29;;;;;;;7.60;1.00;;;6.70;64.00;;;;;;4938298;29;20337;-74
2023/01/19 12:58:13;;;;;;;9.68;1.20;;;6.70;65.40;;;;;;4954089;29;20090;-74
2023/01/19 13:00:45;;;;;;;7.07;0.77;;;6.40;57.70;;;;;;4953173;29;20043;-74
2023/01/19 13:03:16;;;;;;;3.75;0.88;;;6.20;60.10;;;;;;4938240;29;20625;-74
2023/01/19 13:05:42;;;;;;;5.18;1.20;;;6.30;65.10;;;;;;4938037;29;20039;-74
2023/01/19 13:08:07;;;;;;;5.50;0.83;;;6.30;66.00;;;;;;4938316;29;20043;-74
2023/01/19 13:10:54;;;;;;;4.70;0.83;;;6.20;66.60;;;;;;4954017;29;20279;-74
2023/01/19 13:13:37;;;;;;;4.03;0.82;;;6.20;74.20;;;;;;4937963;29;20310;-74
2023/01/19 13:16:18;;;;;;;2.22;0.57;;;6.00;71.00;;;;;;4954204;29;20062;-74
2023/01/19 13:19:05;;;;;;;5.43;0.95;;;5.90;72.90;;;;;;4937772;29;20039;-75
2023/01/19 13:21:39;;;;;;;4.10;1.10;;;5.80;75.40;;;;;;4953969;29;20042;-74
2023/01/19 13:24:06;;;;;;;4.25;0.88;;;5.80;75.20;;;;;;4937585;29;20074;-74
2023/01/19 13:26:39;;;;;;;5.13;1.00;;;5.70;74.60;;;;;;4953648;29;20047;-74
2023/01/19 13:29:06;;;;;;;7.18;1.23;;;5.70;77.80;;;;;;4953440;29;20121;-74